Time;durP1;ratioP1;P1;durP2;ratioP2;P2;SDS_P1;SDS_P2;PMS_P1;PMS_P2;Temp;Humidity;BMP_temperature;BMP_pressure;BME280_temperature;BME280_humidity;BME280_pressure;Samples;Min_cycle;Max_cycle;Signal;HPM_P1;HPM_P2
2022/12/25 00:01:23;;;;;;;4.43;2.78;;;;;;;0.77;75.90;99469.72;5103245;27;20047;-72
2022/12/25 00:03:49;;;;;;;2.63;2.35;;;;;;;0.75;76.13;99477.63;5120695;27;20046;-72
2022/12/25 00:06:13;;;;;;;3.08;2.50;;;;;;;0.79;77.29;99489.72;5117891;27;20042;-72
2022/12/25 00:08:39;;;;;;;2.85;2.38;;;;;;;0.81;77.34;99480.03;5118141;27;20127;-72
2022/12/25 00:11:06;;;;;;;4.22;3.10;;;;;;;0.83;77.16;99480.84;5117859;27;20476;-73
2022/12/25 00:13:31;;;;;;;3.58;2.53;;;;;;;0.83;77.27;99493.97;5118991;27;20091;-75
2022/12/25 00:15:56;;;;;;;2.40;2.20;;;;;;;0.82;76.67;99496.63;5099149;27;20031;-76
2022/12/25 00:18:21;;;;;;;2.83;2.20;;;;;;;0.81;76.71;99500.16;5119641;27;20039;-77
2022/12/25 00:20:58;;;;;;;4.47;2.55;;;;;;;0.80;76.16;99501.94;5118838;27;20413;-72
2022/12/25 00:23:23;;;;;;;3.65;2.67;;;;;;;0.82;76.94;99507.13;5107637;27;20070;-75
2022/12/25 00:25:47;;;;;;;2.97;2.10;;;;;;;0.80;77.20;99507.16;5119993;27;20077;-73
2022/12/25 00:28:12;;;;;;;2.50;2.05;;;;;;;0.76;76.66;99507.34;5119721;27;20042;-73
2022/12/25 00:30:39;;;;;;;3.03;2.25;;;;;;;0.73;76.16;99521.41;5103233;27;20049;-72
2022/12/25 00:33:04;;;;;;;2.33;1.95;;;;;;;0.73;76.72;99522.28;5103197;27;20034;-71
2022/12/25 00:35:28;;;;;;;4.25;2.45;;;;;;;0.74;77.16;99523.13;5120776;27;20041;-70
2022/12/25 00:37:53;;;;;;;2.80;2.42;;;;;;;0.75;77.33;99516.13;5116989;27;20464;-71
2022/12/25 00:40:18;;;;;;;2.35;1.88;;;;;;;0.74;76.83;99523.13;5117466;27;20038;-70
2022/12/25 00:42:42;;;;;;;3.25;1.95;;;;;;;0.65;76.52;99524.31;5099605;27;20043;-71
2022/12/25 00:45:07;;;;;;;3.83;2.08;;;;;;;0.64;76.48;99521.72;5096734;27;20129;-72
2022/12/25 00:47:32;;;;;;;1.80;1.70;;;;;;;0.56;76.05;99529.00;5095254;27;20067;-71
2022/12/25 00:49:57;;;;;;;3.38;1.73;;;;;;;0.56;75.72;99537.75;5080751;27;20073;-65
2022/12/25 00:52:21;;;;;;;2.22;1.40;;;;;;;0.50;75.07;99539.69;5080556;27;20034;-70
2022/12/25 00:54:46;;;;;;;2.17;1.92;;;;;;;0.40;73.63;99539.13;5095357;27;20420;-69
2022/12/25 00:57:10;;;;;;;2.42;1.75;;;;;;;0.37;72.52;99533.97;5080312;27;20509;-69
2022/12/25 00:59:35;;;;;;;2.45;1.48;;;;;;;0.33;73.15;99545.47;5097549;27;20038;-69
2022/12/25 01:02:22;;;;;;;5.72;2.17;;;;;;;0.30;72.50;99543.81;5097529;27;20078;-68
2022/12/25 01:04:44;;;;;;;2.63;1.75;;;;;;;0.33;73.19;99545.47;5079924;27;20069;-67
2022/12/25 01:07:10;;;;;;;2.63;1.88;;;;;;;0.33;73.48;99567.31;5115954;27;20117;-67
2022/12/25 01:12:18;;;;;;;2.30;1.58;;;;;;;0.26;72.03;99568.41;5113948;27;20437;-69
2022/12/25 01:14:42;;;;;;;2.33;1.63;;;;;;;0.27;72.31;99572.72;5116125;27;20482;-66
2022/12/25 01:17:07;;;;;;;3.42;2.05;;;;;;;0.33;72.83;99571.69;5116527;27;20046;-67
2022/12/25 01:19:31;;;;;;;5.70;1.77;;;;;;;0.35;73.37;99575.09;5098479;27;20038;-67
2022/12/25 01:21:56;;;;;;;1.63;1.52;;;;;;;0.40;74.70;99572.34;5097746;27;20259;-65
2022/12/25 01:24:20;;;;;;;2.00;1.45;;;;;;;0.39;75.13;99573.25;5097760;27;20480;-66
2022/12/25 01:26:45;;;;;;;1.35;1.25;;;;;;;0.35;74.80;99577.72;5097588;27;20493;-68
2022/12/25 01:29:10;;;;;;;1.80;1.48;;;;;;;0.26;73.35;99586.75;5116046;27;20068;-68
2022/12/25 01:31:34;;;;;;;1.40;1.17;;;;;;;0.25;72.36;99568.44;5096969;27;20408;-68
2022/12/25 01:33:59;;;;;;;1.15;1.08;;;;;;;0.14;71.15;99588.88;5097729;27;20105;-69
2022/12/25 01:36:25;;;;;;;1.00;1.00;;;;;;;0.10;70.76;99595.13;5115533;27;20381;-74
2022/12/25 01:38:51;;;;;;;2.38;1.20;;;;;;;0.12;70.44;99609.88;5116241;27;20038;-73
2022/12/25 01:41:17;;;;;;;3.38;1.00;;;;;;;0.11;70.65;99613.44;5116356;27;20456;-72
2022/12/25 01:44:05;;;;;;;1.42;0.90;;;;;;;0.17;71.68;99617.63;5089569;27;20130;-72
2022/12/25 01:46:31;;;;;;;1.65;1.55;;;;;;;0.08;70.70;99616.16;5095964;27;20027;-72
2022/12/25 01:49:10;;;;;;;2.38;0.68;;;;;;;0.13;71.09;99622.09;5116598;27;20515;-73
2022/12/25 01:51:43;;;;;;;2.05;0.88;;;;;;;0.13;72.24;99623.84;5080820;27;20519;-74
2022/12/25 01:54:14;;;;;;;3.53;2.00;;;;;;;0.15;73.12;99633.41;5098133;27;20090;-73
2022/12/25 01:56:41;;;;;;;1.20;1.10;;;;;;;0.07;73.26;99640.63;5076939;28;20156;-72
2022/12/25 01:59:07;;;;;;;1.95;1.40;;;;;;;0.06;72.71;99633.66;5077242;28;20129;-72
2022/12/25 02:01:32;;;;;;;0.95;0.88;;;;;;;0.03;73.42;99627.66;5082668;28;20403;-74
2022/12/25 02:04:04;;;;;;;2.80;1.17;;;;;;;0.06;72.63;99643.28;5111275;27;20051;-74
2022/12/25 02:06:29;;;;;;;1.05;1.00;;;;;;;0.03;72.90;99644.22;5116019;27;20035;-70
2022/12/25 02:08:54;;;;;;;1.92;1.45;;;;;;;0.02;71.79;99641.66;5078541;27;20053;-72
2022/12/25 02:14:02;;;;;;;1.52;1.42;;;;;;;0.05;72.31;99650.28;5100364;27;20038;-74
2022/12/25 02:16:33;;;;;;;1.13;1.02;;;;;;;0.06;72.83;99648.53;5100625;27;20046;-73
2022/12/25 02:19:17;;;;;;;3.17;1.98;;;;;;;0.00;73.64;99654.81;5081427;27;20042;-72
2022/12/25 02:22:04;;;;;;;1.23;1.23;;;;;;;0.03;74.33;99653.84;5096592;27;20096;-73
2022/12/25 02:25:09;;;;;;;2.10;2.00;;;;;;;0.02;74.15;99658.25;5080494;27;20043;-72
2022/12/25 02:27:58;;;;;;;1.95;1.70;;;;;;;-0.01;74.61;99668.84;5116227;27;20098;-71
2022/12/25 02:30:24;;;;;;;1.85;1.67;;;;;;;-0.18;73.34;99666.66;5081444;27;20037;-74
2022/12/25 02:34:01;;;;;;;2.40;2.17;;;;;;;-0.18;73.19;99669.28;5095690;27;20424;-71
2022/12/25 02:35:37;;;;;;;1.35;1.25;;;;;;;-0.21;73.44;99676.38;5077457;27;20483;-69
2022/12/25 02:38:08;;;;;;;1.63;1.52;;;;;;;-0.20;73.26;99680.69;5116639;27;20600;-69
2022/12/25 02:40:52;;;;;;;2.13;1.55;;;;;;;-0.29;70.40;99684.44;5097901;27;20051;-70
2022/12/25 03:08:33;;;;;;;;;;;;;;;-0.53;72.24;99725.22;5083949;27;20039;-63
2022/12/25 03:13:51;;;;;;;1.02;0.98;;;;;;;-0.69;71.40;99725.66;5116893;27;20481;-63
2022/12/25 03:26:53;;;;;;;5.28;2.40;;;;;;;-0.73;71.45;99730.09;5118828;27;20099;-63
2022/12/25 03:27:12;;;;;;;1.75;1.42;;;;;;;-0.95;67.97;99734.97;5119773;27;20048;-62
2022/12/25 03:32:44;;;;;;;2.30;1.65;;;;;;;-0.95;68.57;99750.69;5118216;27;20390;-61
2022/12/25 03:35:27;;;;;;;2.38;2.00;;;;;;;-0.85;69.48;99752.19;5118463;27;20030;-62
2022/12/25 04:36:28;;;;;;;2.80;2.28;;;;;;;-1.05;70.58;99806.75;5117250;27;20310;-63
2022/12/25 04:38:52;;;;;;;2.97;1.98;;;;;;;-1.04;71.15;99808.47;5117276;27;20047;-64
2022/12/25 04:41:17;;;;;;;3.67;2.22;;;;;;;-1.02;70.50;99800.59;5116925;27;20046;-62
2022/12/25 04:43:41;;;;;;;3.55;2.75;;;;;;;-1.03;70.22;99806.72;5117200;27;20537;-63
2022/12/25 04:46:06;;;;;;;3.60;2.92;;;;;;;-1.01;70.67;99807.50;5080560;27;20047;-62
2022/12/25 04:48:34;;;;;;;2.65;2.25;;;;;;;-0.97;70.55;99817.03;5098173;27;20378;-61
2022/12/25 04:51:12;;;;;;;7.00;2.85;;;;;;;-0.89;70.41;99828.19;5098083;27;20046;-62
2022/12/25 04:53:36;;;;;;;3.08;2.33;;;;;;;-0.89;70.53;99834.28;5116811;27;20413;-62
2022/12/25 04:56:01;;;;;;;6.63;2.55;;;;;;;-0.91;68.74;99825.63;5066664;27;20035;-62
2022/12/25 04:58:26;;;;;;;3.53;2.47;;;;;;;-0.90;69.27;99827.31;5097968;27;20055;-63
2022/12/25 05:00:51;;;;;;;2.97;2.20;;;;;;;-0.86;70.72;99836.84;5116900;27;20034;-62
2022/12/25 05:03:15;;;;;;;2.08;1.90;;;;;;;-0.88;70.41;99843.00;5098116;27;20038;-63
2022/12/25 05:05:40;;;;;;;3.88;2.47;;;;;;;-0.92;69.05;99844.81;5077936;27;20130;-61
2022/12/25 05:08:04;;;;;;;2.78;2.28;;;;;;;-0.92;69.54;99846.59;5110927;27;20400;-62
2022/12/25 05:10:29;;;;;;;4.57;2.65;;;;;;;-1.01;68.23;99852.84;5097927;27;20126;-63
2022/12/25 05:12:54;;;;;;;2.20;1.90;;;;;;;-1.00;68.79;99864.19;5077396;27;20121;-63
2022/12/25 05:15:18;;;;;;;2.50;1.88;;;;;;;-1.03;69.39;99859.03;5077407;27;20096;-63
2022/12/25 05:17:43;;;;;;;6.13;2.67;;;;;;;-1.11;69.22;99859.19;5106587;27;20035;-63
2022/12/25 05:20:07;;;;;;;3.53;1.83;;;;;;;-1.12;69.80;99867.91;5097749;27;20122;-62
2022/12/25 05:22:32;;;;;;;2.55;2.38;;;;;;;-1.09;70.56;99880.94;5098070;27;20038;-63
2022/12/25 05:24:57;;;;;;;3.08;2.42;;;;;;;-1.09;70.88;99873.09;5116427;27;20480;-63
2022/12/25 05:27:21;;;;;;;4.95;2.83;;;;;;;-1.18;68.26;99882.00;5116060;27;20517;-64
2022/12/25 05:29:46;;;;;;;1.65;1.52;;;;;;;-1.19;69.06;99880.28;5116485;27;20042;-63
2022/12/25 05:32:11;;;;;;;3.70;2.33;;;;;;;-1.21;68.64;99891.66;5116001;27;20035;-63
2022/12/25 05:34:36;;;;;;;7.70;2.83;;;;;;;-1.24;68.21;99886.50;5116070;27;20497;-63
2022/12/25 05:37:00;;;;;;;6.18;2.35;;;;;;;-1.34;67.36;99892.78;5097184;27;20390;-64
2022/12/25 05:39:25;;;;;;;2.60;2.03;;;;;;;-1.40;67.38;99906.84;5115886;27;20042;-64
2022/12/25 05:41:50;;;;;;;3.50;2.25;;;;;;;-1.38;67.87;99917.28;5100912;27;20043;-63
2022/12/25 05:44:14;;;;;;;5.82;4.15;;;;;;;-1.48;67.14;99917.47;5108937;27;20129;-63
2022/12/25 05:46:39;;;;;;;2.70;1.90;;;;;;;-1.47;67.53;99913.94;5120233;27;20091;-64
2022/12/25 05:49:04;;;;;;;4.07;2.40;;;;;;;-1.54;66.79;99917.56;5097619;27;20081;-62
2022/12/25 05:51:29;;;;;;;5.35;3.22;;;;;;;-1.51;67.33;99929.72;5099461;27;20501;-63
2022/12/25 05:53:54;;;;;;;4.43;2.88;;;;;;;-1.58;66.68;99928.13;5129239;27;20095;-62
2022/12/25 05:56:18;;;;;;;4.50;3.83;;;;;;;-1.76;66.73;99931.03;5128854;27;20046;-64
2022/12/25 05:58:43;;;;;;;6.90;3.30;;;;;;;-1.64;67.81;99936.03;5100222;27;20477;-64
2022/12/25 06:01:18;;;;;;;3.70;2.83;;;;;;;-1.64;67.21;99946.50;5098927;27;20039;-63
2022/12/25 06:03:43;;;;;;;3.20;2.67;;;;;;;-1.67;67.24;99936.09;5104126;27;20389;-63
2022/12/25 06:06:10;;;;;;;9.20;3.72;;;;;;;-1.69;67.06;99949.19;5117300;27;20414;-62
2022/12/25 06:08:35;;;;;;;8.07;4.03;;;;;;;-1.76;66.88;99947.56;5115847;27;20050;-63
2022/12/25 06:11:07;;;;;;;7.88;3.65;;;;;;;-1.77;66.95;99951.06;5080121;27;20042;-63
2022/12/25 06:13:32;;;;;;;13.52;4.88;;;;;;;-1.69;67.08;99958.81;5096966;27;20030;-63
2022/12/25 06:15:58;;;;;;;8.07;3.70;;;;;;;-1.65;67.41;99963.06;5097144;27;20114;-63
2022/12/25 06:18:22;;;;;;;5.15;2.53;;;;;;;-1.73;66.69;99949.28;5115725;27;20393;-62
2022/12/25 06:20:47;;;;;;;5.38;3.15;;;;;;;-1.73;66.66;99951.88;5119896;27;20416;-62
2022/12/25 06:23:11;;;;;;;4.43;2.85;;;;;;;-1.62;67.14;99955.19;5119906;27;20050;-64
2022/12/25 06:25:39;;;;;;;6.35;3.08;;;;;;;-1.59;66.88;99970.81;5101143;27;20042;-63
2022/12/25 06:28:04;;;;;;;4.50;2.53;;;;;;;-1.54;66.81;99963.75;5119820;27;20208;-64
2022/12/25 06:30:28;;;;;;;13.48;4.03;;;;;;;-1.48;67.49;99961.91;5119706;27;20129;-62
2022/12/25 06:32:53;;;;;;;3.92;2.55;;;;;;;-1.42;67.28;99966.16;5119959;27;20142;-64
2022/12/25 06:35:17;;;;;;;3.55;2.47;;;;;;;-1.34;67.66;99972.09;5100798;27;20038;-62
2022/12/25 06:37:42;;;;;;;7.68;3.97;;;;;;;-1.30;67.56;99971.16;5119067;27;20167;-63
2022/12/25 06:40:07;;;;;;;8.20;4.13;;;;;;;-1.19;68.34;99970.97;5105554;27;20121;-64
2022/12/25 06:42:32;;;;;;;13.85;5.32;;;;;;;-1.31;67.66;99974.66;5127063;27;20039;-62
2022/12/25 06:44:56;;;;;;;11.20;4.78;;;;;;;-1.34;66.65;99979.06;5106428;27;20125;-64
2022/12/25 06:47:21;;;;;;;14.80;4.65;;;;;;;-1.41;66.48;99987.94;5109846;27;20031;-63
2022/12/25 06:49:45;;;;;;;15.68;5.00;;;;;;;-1.35;66.90;99988.66;5131332;27;20036;-63
2022/12/25 06:52:10;;;;;;;6.03;3.97;;;;;;;-1.38;66.37;99990.50;5114936;27;20504;-63
2022/12/25 06:54:34;;;;;;;9.77;4.60;;;;;;;-1.37;66.61;99992.22;5129955;27;20053;-63
2022/12/25 06:56:59;;;;;;;8.73;4.82;;;;;;;-1.46;65.72;99994.09;5132672;27;20051;-63
2022/12/25 06:59:24;;;;;;;7.65;3.33;;;;;;;-1.51;66.17;99995.06;5110259;27;20115;-63
2022/12/25 07:01:53;;;;;;;10.40;3.40;;;;;;;-1.38;66.78;100009.66;5132510;27;20048;-63
2022/12/25 07:04:39;;;;;;;9.38;3.60;;;;;;;-1.21;67.95;100011.97;5108559;27;20145;-66
2022/12/25 07:07:06;;;;;;;6.78;2.95;;;;;;;-1.20;67.91;100003.25;5090803;27;20031;-64
2022/12/25 07:09:31;;;;;;;7.90;3.30;;;;;;;-1.22;67.26;100007.63;5097348;27;20080;-62
2022/12/25 07:12:26;;;;;;;6.18;3.75;;;;;;;-1.13;67.23;100008.31;5084952;27;20110;-64
2022/12/25 07:14:53;;;;;;;3.35;2.67;;;;;;;-1.25;66.22;100013.81;5024383;28;20449;-63
2022/12/25 07:17:19;;;;;;;4.65;2.97;;;;;;;-1.31;65.97;100007.78;5042011;28;20051;-63
2022/12/25 07:19:45;;;;;;;3.30;2.50;;;;;;;-1.35;65.17;100011.34;5030124;28;20123;-62
2022/12/25 07:22:10;;;;;;;4.18;2.72;;;;;;;-1.34;65.26;100003.47;5038299;28;20123;-64
2022/12/25 07:24:34;;;;;;;4.25;2.15;;;;;;;-1.45;64.77;100002.81;5041390;28;20075;-64
2022/12/25 07:26:59;;;;;;;4.40;2.50;;;;;;;-1.46;65.05;100008.91;5023197;28;20037;-63
2022/12/25 07:29:23;;;;;;;3.13;2.03;;;;;;;-1.45;65.56;100015.88;5036760;28;20042;-63
2022/12/25 07:31:48;;;;;;;4.05;2.38;;;;;;;-1.41;66.11;100027.16;5036315;28;20052;-63
2022/12/25 07:34:13;;;;;;;5.35;1.90;;;;;;;-1.37;66.29;100029.69;5023998;28;20048;-63
2022/12/25 07:36:37;;;;;;;3.53;2.08;;;;;;;-1.33;66.48;100036.59;5042890;28;20055;-64
2022/12/25 07:39:02;;;;;;;2.33;1.40;;;;;;;-1.29;66.58;100042.63;5036160;28;20048;-62
2022/12/25 07:41:28;;;;;;;11.13;2.55;;;;;;;-1.27;66.14;100041.72;5035470;28;20139;-64
2022/12/25 07:44:10;;;;;;;4.15;2.65;;;;;;;-1.24;65.44;100043.44;5034635;28;20040;-63
2022/12/25 07:46:35;;;;;;;2.15;1.88;;;;;;;-1.24;65.54;100049.50;5018458;28;20055;-65
2022/12/25 07:49:00;;;;;;;3.65;2.40;;;;;;;-1.19;66.07;100060.75;5019175;28;20052;-63
2022/12/25 07:51:28;;;;;;;3.75;2.25;;;;;;;-1.16;66.83;100055.47;5076520;27;20631;-64
2022/12/25 07:53:53;;;;;;;4.07;2.00;;;;;;;-1.11;67.23;100066.72;5100006;27;20039;-63
2022/12/25 07:56:19;;;;;;;5.45;2.53;;;;;;;-1.13;67.35;100058.03;5099177;27;20053;-63
2022/12/25 07:58:44;;;;;;;9.82;4.10;;;;;;;-1.43;64.29;100055.94;5117950;27;20042;-65
2022/12/25 08:01:16;;;;;;;5.53;2.92;;;;;;;-1.39;64.93;100052.41;5118245;27;20048;-62
2022/12/25 08:03:41;;;;;;;3.92;2.50;;;;;;;-1.35;65.56;100063.66;5118061;27;20050;-65
2022/12/25 08:06:08;;;;;;;2.97;1.83;;;;;;;-1.41;64.74;100061.16;5099589;27;20046;-63
2022/12/25 08:08:35;;;;;;;4.25;2.42;;;;;;;-1.45;64.73;100073.41;5118085;27;20473;-64
2022/12/25 08:10:59;;;;;;;7.55;3.25;;;;;;;-1.43;64.99;100082.09;5070851;27;20047;-65
2022/12/25 08:13:24;;;;;;;6.13;3.03;;;;;;;-1.43;64.83;100079.47;5096827;27;20123;-64
2022/12/25 08:15:49;;;;;;;7.55;3.35;;;;;;;-1.43;65.09;100089.06;5118162;27;20587;-63
2022/12/25 08:18:14;;;;;;;3.85;2.55;;;;;;;-1.49;64.44;100092.66;5118141;27;20034;-64
2022/12/25 08:20:39;;;;;;;6.75;3.63;;;;;;;-1.59;64.93;100091.06;5099163;27;20054;-64
2022/12/25 08:23:04;;;;;;;7.47;2.50;;;;;;;-1.90;64.30;100094.13;5094682;27;20091;-64
2022/12/25 08:25:29;;;;;;;4.75;3.15;;;;;;;-1.94;64.80;100092.44;5117695;27;20037;-64
2022/12/25 08:27:54;;;;;;;3.45;2.33;;;;;;;-1.81;64.97;100098.38;5099058;27;20065;-63
2022/12/25 08:30:19;;;;;;;3.97;2.55;;;;;;;-1.69;66.05;100100.78;5117414;27;20047;-65
2022/12/25 08:32:43;;;;;;;8.00;3.35;;;;;;;-1.60;66.10;100105.91;5098581;27;20030;-64
2022/12/25 08:35:08;;;;;;;4.38;2.97;;;;;;;-1.58;65.22;100103.25;5117305;27;20046;-65
2022/12/25 08:37:33;;;;;;;4.13;2.90;;;;;;;-1.67;65.35;100100.75;5117224;27;20045;-63
2022/12/25 08:39:57;;;;;;;5.38;3.63;;;;;;;-1.74;64.74;100109.59;5098532;27;20102;-64
2022/12/25 08:42:24;;;;;;;3.05;2.35;;;;;;;-1.88;65.24;100118.47;5116493;27;20469;-62
2022/12/25 08:44:49;;;;;;;4.07;3.42;;;;;;;-1.79;65.56;100107.03;5061048;27;20817;-64
2022/12/25 08:47:13;;;;;;;5.65;3.00;;;;;;;-1.65;65.47;100106.84;5108095;27;20400;-64
2022/12/25 08:49:38;;;;;;;7.03;3.63;;;;;;;-1.58;65.19;100106.72;5116856;27;20123;-64
2022/12/25 08:52:03;;;;;;;5.05;3.35;;;;;;;-1.50;65.65;100114.47;5098272;27;20039;-65
2022/12/25 08:54:31;;;;;;;4.88;3.25;;;;;;;-1.50;64.91;100114.47;5066607;27;20042;-64
2022/12/25 08:56:56;;;;;;;4.25;2.38;;;;;;;-1.59;64.35;100119.81;5116570;27;20053;-63
2022/12/25 08:59:20;;;;;;;3.45;2.35;;;;;;;-1.44;65.92;100122.19;5116815;27;20051;-63
2022/12/25 09:01:45;;;;;;;4.57;3.10;;;;;;;-1.48;65.48;100120.53;5060449;27;20039;-63
2022/12/25 09:04:10;;;;;;;4.95;2.45;;;;;;;-1.41;65.51;100116.94;5107482;27;20053;-63
2022/12/25 09:06:35;;;;;;;5.65;2.58;;;;;;;-1.40;66.18;100125.63;5100795;27;20063;-64
2022/12/25 09:09:01;;;;;;;5.53;3.03;;;;;;;-1.47;65.23;100128.31;5117506;27;20035;-66
2022/12/25 09:11:25;;;;;;;3.90;2.50;;;;;;;-1.50;64.73;100127.53;5098324;27;20100;-65
2022/12/25 09:13:50;;;;;;;4.65;3.20;;;;;;;-1.61;64.56;100127.69;5116642;27;20039;-64
2022/12/25 09:16:19;;;;;;;3.67;2.67;;;;;;;-1.61;64.65;100135.53;5116310;27;20469;-65
2022/12/25 09:18:43;;;;;;;3.40;2.20;;;;;;;-1.61;64.75;100145.13;5075561;27;20058;-63
2022/12/25 09:21:10;;;;;;;4.60;2.30;;;;;;;-1.57;64.80;100144.16;5106739;27;20081;-64
2022/12/25 09:23:35;;;;;;;3.90;2.72;;;;;;;-1.51;64.81;100151.94;5116302;27;20441;-66
2022/12/25 09:26:02;;;;;;;2.95;2.42;;;;;;;-1.56;64.88;100156.38;5116127;27;20417;-64
2022/12/25 09:28:27;;;;;;;3.58;2.72;;;;;;;-1.66;64.27;100154.75;5097698;27;20041;-64
2022/12/25 09:30:52;;;;;;;5.93;2.67;;;;;;;-1.65;64.91;100151.28;5116344;27;20042;-63
2022/12/25 09:33:19;;;;;;;4.90;3.00;;;;;;;-1.65;64.91;100159.13;5097552;27;20068;-64
2022/12/25 09:35:58;;;;;;;4.10;2.65;;;;;;;-1.59;65.45;100159.03;5115901;27;20030;-64
2022/12/25 09:38:23;;;;;;;6.38;3.15;;;;;;;-1.70;64.50;100160.94;5097822;27;20042;-62
2022/12/25 09:41:17;;;;;;;3.97;2.50;;;;;;;-1.59;65.23;100162.53;5097557;27;20103;-63
2022/12/25 09:43:52;;;;;;;2.22;2.03;;;;;;;-1.72;64.50;100163.56;5087224;27;20058;-63
2022/12/25 09:46:20;;;;;;;3.90;2.80;;;;;;;-1.88;64.48;100173.34;5097338;27;20038;-65
2022/12/25 09:49:15;;;;;;;3.55;2.25;;;;;;;-1.81;64.63;100174.16;5116056;27;20053;-64
2022/12/25 09:51:43;;;;;;;2.72;2.50;;;;;;;-1.83;64.76;100165.47;5091689;27;20146;-64
2022/12/25 09:54:21;;;;;;;4.65;2.50;;;;;;;-1.75;65.17;100167.97;5116333;27;20046;-66
2022/12/25 09:56:46;;;;;;;3.30;2.40;;;;;;;-1.85;65.25;100170.72;5115918;27;20051;-64
2022/12/25 09:59:31;;;;;;;6.15;2.88;;;;;;;-1.86;65.53;100168.09;5116259;27;20078;-64
2022/12/25 10:02:04;;;;;;;3.50;2.35;;;;;;;-1.84;65.29;100174.19;5097611;27;20125;-63
2022/12/25 10:04:58;;;;;;;5.20;2.97;;;;;;;-1.88;64.78;100168.13;5097644;27;20073;-64
2022/12/25 10:07:22;;;;;;;3.78;2.85;;;;;;;-1.98;64.29;100176.97;5105265;27;20439;-65
2022/12/25 10:09:59;;;;;;;2.50;2.30;;;;;;;-1.93;65.22;100188.25;5097144;27;20501;-63
2022/12/25 10:12:30;;;;;;;3.03;2.28;;;;;;;-1.95;65.41;100186.53;5060091;28;20062;-63
2022/12/25 10:15:08;;;;;;;4.47;2.60;;;;;;;-1.80;66.32;100198.50;5092240;27;20046;-63
2022/12/25 10:17:54;;;;;;;2.95;2.65;;;;;;;-1.99;64.84;100196.13;5116087;27;20038;-63
2022/12/25 10:20:37;;;;;;;2.13;1.90;;;;;;;-1.92;65.18;100195.16;5097221;27;20034;-63
2022/12/25 10:23:05;;;;;;;6.82;2.60;;;;;;;-2.04;65.06;100207.53;5097300;27;20045;-63
2022/12/25 10:25:31;;;;;;;4.60;2.50;;;;;;;-1.95;65.55;100210.03;5096631;27;20038;-65
2022/12/25 10:28:03;;;;;;;3.30;1.55;;;;;;;-1.82;66.29;100214.22;5115501;27;20042;-63
2022/12/25 10:30:29;;;;;;;2.15;1.95;;;;;;;-1.74;66.60;100215.00;5097060;27;20085;-64
2022/12/25 10:32:56;;;;;;;2.63;2.00;;;;;;;-1.67;66.50;100215.78;5097070;27;20057;-64
2022/12/25 10:35:23;;;;;;;2.13;1.90;;;;;;;-1.61;65.92;100200.03;5115857;27;20034;-65
2022/12/25 10:37:55;;;;;;;3.17;2.47;;;;;;;-1.67;64.81;100208.78;5115123;27;20498;-64
2022/12/25 10:40:22;;;;;;;3.25;2.70;;;;;;;-1.84;64.03;100208.16;5115495;27;20088;-64
2022/12/25 10:42:54;;;;;;;3.50;2.22;;;;;;;-1.72;64.53;100212.38;5065543;27;20034;-63
2022/12/25 10:45:19;;;;;;;5.07;3.25;;;;;;;-1.70;64.74;100203.63;5115598;27;20066;-63
2022/12/25 10:47:46;;;;;;;3.92;3.08;;;;;;;-1.72;64.70;100207.13;5115838;27;20117;-64
2022/12/25 10:50:19;;;;;;;3.15;2.17;;;;;;;-1.76;64.32;100202.81;5116229;27;20127;-63
2022/12/25 10:52:58;;;;;;;4.57;2.92;;;;;;;-1.70;64.29;100202.75;5115801;27;20054;-63
2022/12/25 10:55:23;;;;;;;3.00;2.70;;;;;;;-1.68;64.62;100206.19;5098896;27;20034;-64
2022/12/25 10:57:48;;;;;;;5.13;3.03;;;;;;;-1.63;65.18;100205.25;5098279;27;20058;-63
2022/12/25 11:00:24;;;;;;;4.25;3.30;;;;;;;-1.55;64.85;100207.75;5098602;27;20043;-74
2022/12/25 11:02:50;;;;;;;4.57;3.33;;;;;;;-1.58;64.90;100205.22;5081639;28;20039;-72
2022/12/25 11:05:30;;;;;;;4.93;3.35;;;;;;;-1.52;64.80;100212.97;5097607;27;20035;-74
2022/12/25 11:07:58;;;;;;;6.25;3.65;;;;;;;-1.52;65.16;100212.97;5099820;27;20038;-71
2022/12/25 11:10:33;;;;;;;5.80;4.07;;;;;;;-1.60;64.01;100207.84;5105736;27;20035;-71
2022/12/25 11:12:59;;;;;;;8.65;4.88;;;;;;;-1.73;64.20;100215.84;5120034;27;20061;-73
2022/12/25 11:15:39;;;;;;;5.13;3.53;;;;;;;-1.64;64.84;100226.19;5119694;27;20149;-74
2022/12/25 11:18:28;;;;;;;4.57;3.22;;;;;;;-1.60;64.15;100222.66;5119484;27;20039;-73
2022/12/25 11:20:59;;;;;;;5.40;3.30;;;;;;;-1.55;64.61;100224.31;5119230;27;20046;-71
2022/12/25 11:23:27;;;;;;;6.45;4.40;;;;;;;-1.50;64.73;100225.13;5101451;27;20038;-73
2022/12/25 11:26:12;;;;;;;9.68;4.15;;;;;;;-1.45;64.14;100238.13;5119302;27;20046;-71
2022/12/25 11:28:40;;;;;;;6.07;4.10;;;;;;;-1.55;63.89;100228.69;5119628;27;20038;-72
2022/12/25 11:31:19;;;;;;;3.88;3.35;;;;;;;-1.46;64.23;100228.56;5106355;27;20039;-74
2022/12/25 11:33:47;;;;;;;4.88;3.50;;;;;;;-1.49;63.73;100232.09;5129224;27;20039;-73
2022/12/25 11:36:23;;;;;;;4.38;2.97;;;;;;;-1.52;63.05;100228.66;5122387;27;20126;-73
2022/12/25 11:38:47;;;;;;;9.52;4.95;;;;;;;-1.56;63.75;100230.44;5094995;27;20038;-73
2022/12/25 11:41:19;;;;;;;6.28;4.20;;;;;;;-1.50;64.25;100245.19;5067466;27;20084;-73
2022/12/25 11:43:58;;;;;;;6.60;3.42;;;;;;;-1.46;64.11;100236.41;5101020;27;20438;-73
2022/12/25 11:46:29;;;;;;;3.40;2.78;;;;;;;-1.43;64.73;100243.34;5101230;27;20492;-75
2022/12/25 11:49:18;;;;;;;5.22;3.17;;;;;;;-1.39;64.25;100240.69;5119435;27;20047;-73
2022/12/25 11:51:46;;;;;;;3.20;2.75;;;;;;;-1.39;64.73;100239.81;5119964;27;20038;-74
2022/12/25 11:54:28;;;;;;;4.18;2.80;;;;;;;-1.33;65.35;100251.03;5118803;27;20161;-74
2022/12/25 11:56:56;;;;;;;3.78;3.13;;;;;;;-1.39;65.57;100252.88;5105047;27;20063;-73
2022/12/25 11:59:47;;;;;;;3.25;2.88;;;;;;;-1.34;65.57;100248.44;5100229;27;20050;-71
2022/12/25 12:02:30;;;;;;;4.18;2.85;;;;;;;-1.32;65.87;100262.38;5062853;27;20042;-70
2022/12/25 12:05:07;;;;;;;4.68;3.00;;;;;;;-1.33;65.59;100260.63;5115356;27;20045;-70
2022/12/25 12:07:34;;;;;;;4.32;3.00;;;;;;;-1.33;65.52;100271.97;5118494;27;20416;-71
2022/12/25 12:10:48;;;;;;;3.53;3.22;;;;;;;-1.27;66.23;100266.66;5099467;27;20125;-70
2022/12/25 12:13:33;;;;;;;4.30;3.00;;;;;;;-1.32;65.99;100276.31;5034535;28;20078;-75
2022/12/25 12:15:58;;;;;;;;;;;;;;;-1.28;66.57;100282.38;4955979;28;20057;-77
2022/12/25 12:18:25;;;;;;;;;;;;;;;-1.26;66.97;100278.00;4955897;28;19952;-73
2022/12/25 12:21:17;;;;;;;4.68;2.70;;;;;;;-1.32;66.21;100286.78;4950961;28;19925;-73
2022/12/25 12:24:06;;;;;;;2.83;2.63;;;;;;;-1.31;65.64;100280.66;4944227;28;20057;-70
2022/12/25 12:26:36;;;;;;;4.40;2.80;;;;;;;-1.34;65.28;100272.84;4955357;28;20144;-71
2022/12/25 12:29:03;;;;;;;5.07;3.28;;;;;;;-1.35;65.62;100284.19;4909199;28;20038;-70
2022/12/25 12:31:39;;;;;;;4.38;2.90;;;;;;;-1.31;65.48;100290.25;4954944;28;20054;-72
2022/12/25 12:34:05;;;;;;;3.60;2.83;;;;;;;-1.37;65.00;100291.22;4944482;28;20504;-71
2022/12/25 12:36:30;;;;;;;6.07;3.70;;;;;;;-1.40;65.26;100280.78;4954809;28;20073;-73
2022/12/25 12:38:57;;;;;;;5.53;3.40;;;;;;;-1.40;65.36;100280.78;4925503;28;20034;-72
2022/12/25 12:41:36;;;;;;;4.60;3.03;;;;;;;-1.42;65.17;100286.91;4955152;28;20053;-72
2022/12/25 12:44:04;;;;;;;7.00;4.30;;;;;;;-1.41;65.21;100292.13;4962908;28;20046;-72
2022/12/25 12:46:35;;;;;;;3.60;3.20;;;;;;;-1.37;65.47;100293.84;4968071;28;20046;-72
2022/12/25 12:49:18;;;;;;;5.65;4.10;;;;;;;-1.35;65.70;100289.44;4991159;28;20047;-72
2022/12/25 12:51:43;;;;;;;7.65;4.07;;;;;;;-1.39;65.64;100290.38;5026628;28;20048;-73
2022/12/25 12:54:24;;;;;;;4.85;3.65;;;;;;;-1.39;65.70;100287.75;5119867;27;20057;-71
2022/12/25 12:57:02;;;;;;;6.30;4.47;;;;;;;-1.35;65.22;100297.28;5118228;27;20405;-73
2022/12/25 12:59:37;;;;;;;4.13;3.30;;;;;;;-1.36;65.35;100292.94;5118225;27;20047;-74
2022/12/25 13:02:10;;;;;;;5.07;3.47;;;;;;;-1.41;65.67;100299.97;5118385;27;20504;-72
2022/12/25 13:04:38;;;;;;;7.72;3.95;;;;;;;-1.39;65.92;100306.06;5081777;27;20051;-73
2022/12/25 13:07:32;;;;;;;5.07;3.17;;;;;;;-1.38;65.73;100318.25;5081357;27;20038;-73
2022/12/25 13:10:33;;;;;;;8.35;4.70;;;;;;;-1.36;65.72;100326.09;5098118;27;20133;-71
2022/12/25 13:13:30;;;;;;;5.78;3.75;;;;;;;-1.42;64.91;100318.28;5115134;27;20362;-72
2022/12/25 13:15:56;;;;;;;5.95;4.18;;;;;;;-1.41;64.96;100309.56;4988826;28;20049;-72
2022/12/25 13:18:21;;;;;;;5.57;4.30;;;;;;;-1.45;64.54;100324.41;5010835;28;20075;-73
2022/12/25 13:20:53;;;;;;;5.00;3.97;;;;;;;-1.38;65.10;100325.22;5013455;28;20085;-72
2022/12/25 13:23:34;;;;;;;10.05;3.85;;;;;;;-1.34;65.69;100313.81;5010503;28;20091;-72
2022/12/25 13:26:13;;;;;;;4.82;3.85;;;;;;;-1.33;65.83;100324.28;5015141;28;20057;-73